createdAt,value
2023-04-04T00:00:09.204Z,1.80
2023-04-04T00:05:14.065Z,0.80
2023-04-04T00:10:17.394Z,0.80
2023-04-04T00:15:20.651Z,0.70
2023-04-04T00:20:25.218Z,0.60
2023-04-04T00:25:28.400Z,0.60
2023-04-04T00:30:32.262Z,3.30
2023-04-04T00:35:37.087Z,0.40
2023-04-04T00:40:43.934Z,-2.60
2023-04-04T00:45:48.180Z,3.30
2023-04-04T00:50:53.062Z,3.10
2023-04-04T00:55:56.304Z,0.40
2023-04-04T01:01:00.960Z,3.30
2023-04-04T01:06:05.591Z,0.30
2023-04-04T01:11:09.145Z,0.30
2023-04-04T01:16:12.423Z,0.20
2023-04-04T01:21:18.417Z,1.00
2023-04-04T01:26:24.201Z,0.80
2023-04-04T01:31:31.131Z,0.00
2023-04-04T01:36:39.018Z,0.10
2023-04-04T01:41:44.630Z,0.00
2023-04-04T01:46:48.267Z,0.50
2023-04-04T01:51:52.067Z,-0.20
2023-04-04T01:56:58.148Z,-0.20
2023-04-04T02:02:02.087Z,-0.30
2023-04-04T02:07:05.276Z,-0.40
2023-04-04T02:12:10.305Z,2.30
2023-04-04T02:17:13.600Z,-0.50
2023-04-04T02:22:16.905Z,-0.60
2023-04-04T02:27:21.485Z,-0.60
2023-04-04T02:32:24.949Z,-0.60
2023-04-04T02:37:29.352Z,-0.60
2023-04-04T02:42:34.350Z,-0.70
2023-04-04T02:47:38.421Z,-0.70
2023-04-04T02:52:41.826Z,1.30
2023-04-04T02:57:53.583Z,-0.10
2023-04-04T03:02:57.162Z,-0.90
2023-04-04T03:08:06.964Z,-0.90
2023-04-04T03:13:11.778Z,-2.00
2023-04-04T03:18:15.823Z,-0.60
2023-04-04T03:23:19.101Z,-0.90
2023-04-04T03:28:23.881Z,-1.00
2023-04-04T03:33:27.590Z,-1.00
2023-04-04T03:38:30.739Z,-1.00
2023-04-04T03:43:35.755Z,-1.90
2023-04-04T03:48:39.061Z,-1.00
2023-04-04T03:53:45.440Z,-1.00
2023-04-04T03:58:50.307Z,-1.10
2023-04-04T04:03:58.054Z,-1.30
2023-04-04T04:09:01.371Z,-0.20
2023-04-04T04:14:05.933Z,-1.10
2023-04-04T04:19:09.916Z,-1.10
2023-04-04T04:24:17.076Z,-1.00
2023-04-04T04:29:21.796Z,1.30
2023-04-04T04:34:25.302Z,-2.40
2023-04-04T04:39:30.040Z,-0.30
2023-04-04T04:44:57.805Z,-1.10
2023-04-04T04:50:01.462Z,-1.20
2023-04-04T04:55:14.847Z,-1.20
2023-04-04T05:00:24.866Z,0.50
2023-04-04T05:05:28.482Z,-1.30
2023-04-04T05:10:38.872Z,1.20
2023-04-04T05:15:47.421Z,-1.40
2023-04-04T05:20:53.100Z,-1.20
2023-04-04T05:25:56.889Z,-1.00
2023-04-04T05:31:05.600Z,-0.60
2023-04-04T05:36:13.117Z,1.20
2023-04-04T05:41:22.213Z,1.80
2023-04-04T05:46:29.853Z,0.90
2023-04-04T05:51:33.355Z,0.30
2023-04-04T05:56:48.943Z,-2.30
2023-04-04T06:02:03.228Z,1.20
2023-04-04T06:07:08.158Z,2.20
2023-04-04T06:12:11.728Z,2.20
2023-04-04T06:17:17.371Z,3.40
2023-04-04T06:22:21.722Z,4.40
2023-04-04T06:27:28.230Z,4.80
2023-04-04T06:32:35.067Z,6.10
2023-04-04T06:37:40.601Z,5.60
2023-04-04T06:42:55.247Z,6.60
2023-04-04T06:48:02.544Z,6.60
2023-04-04T06:53:06.736Z,6.50
2023-04-04T06:58:10.115Z,6.80
2023-04-04T07:03:14.804Z,6.90
2023-04-04T07:08:18.205Z,6.90
2023-04-04T07:13:21.688Z,7.50
2023-04-04T07:18:26.408Z,8.20
2023-04-04T07:23:29.792Z,6.90
2023-04-04T07:28:33.108Z,6.40
2023-04-04T07:33:37.836Z,7.30
2023-04-04T07:38:41.140Z,7.40
2023-04-04T07:43:44.669Z,7.40
2023-04-04T07:48:49.465Z,6.80
2023-04-04T07:53:52.777Z,7.00
2023-04-04T07:58:56.286Z,7.60
2023-04-04T08:04:01.320Z,7.60
2023-04-04T08:09:05.101Z,8.60
2023-04-04T08:14:11.953Z,9.20
2023-04-04T08:19:17.099Z,8.50
2023-04-04T08:24:22.474Z,8.40
2023-04-04T08:29:26.846Z,8.20
2023-04-04T08:34:32.123Z,7.80
2023-04-04T08:39:35.579Z,8.10
2023-04-04T08:44:43.172Z,9.10
2023-04-04T08:49:49.141Z,8.50
2023-04-04T08:54:53.133Z,9.50
2023-04-04T08:59:56.640Z,8.00
2023-04-04T09:05:06.936Z,7.20
2023-04-04T09:10:12.434Z,7.00
2023-04-04T09:15:16.687Z,6.90
2023-04-04T09:20:41.939Z,6.70
2023-04-04T09:26:02.408Z,6.70
2023-04-04T09:31:10.262Z,7.60
2023-04-04T09:36:17.155Z,6.80
2023-04-04T09:41:21.670Z,6.80
2023-04-04T09:46:27.306Z,6.50
2023-04-04T09:51:37.482Z,6.60
2023-04-04T09:56:43.342Z,6.70
2023-04-04T10:01:47.126Z,7.80
2023-04-04T10:06:52.285Z,8.90
2023-04-04T10:12:10.115Z,9.80
2023-04-04T10:17:13.676Z,9.40
2023-04-04T10:22:19.990Z,8.30
2023-04-04T10:27:23.420Z,7.90
2023-04-04T10:32:34.880Z,7.60
2023-04-04T10:37:44.784Z,7.60
2023-04-04T10:42:48.913Z,8.90
2023-04-04T10:47:52.780Z,7.80
2023-04-04T10:52:59.936Z,12.10
2023-04-04T10:58:03.894Z,10.20
2023-04-04T11:03:07.381Z,9.30
2023-04-04T11:08:14.378Z,8.90
2023-04-04T11:13:22.149Z,8.80
2023-04-04T11:18:49.162Z,9.60
2023-04-04T11:24:19.154Z,8.90
2023-04-04T11:29:44.853Z,9.20
2023-04-04T11:34:49.192Z,11.10
2023-04-04T11:39:57.543Z,9.90
2023-04-04T11:45:05.608Z,9.00
2023-04-04T11:50:10.928Z,11.80
2023-04-04T11:55:19.989Z,11.10
2023-04-04T12:00:33.277Z,12.10
2023-04-04T12:05:37.085Z,9.60
2023-04-04T12:10:44.472Z,10.00
2023-04-04T12:15:50.673Z,9.80
2023-04-04T12:20:54.435Z,13.30
2023-04-04T12:25:59.567Z,16.20
2023-04-04T12:31:05.747Z,14.30
2023-04-04T12:36:09.615Z,16.30
2023-04-04T12:41:19.792Z,17.90
2023-04-04T12:46:28.473Z,18.00
2023-04-04T12:51:32.893Z,16.20
2023-04-04T12:56:37.459Z,15.20
2023-04-04T13:01:40.919Z,13.70
2023-04-04T13:06:46.139Z,12.30
2023-04-04T13:12:08.594Z,10.30
2023-04-04T13:17:14.609Z,9.60
2023-04-04T13:22:17.743Z,11.40
2023-04-04T13:27:20.901Z,15.00
2023-04-04T13:32:25.716Z,15.40
2023-04-04T13:37:29.094Z,17.90
2023-04-04T13:42:32.552Z,18.70
2023-04-04T13:47:37.345Z,17.60
2023-04-04T13:52:40.751Z,19.50
2023-04-04T13:57:44.059Z,19.90
2023-04-04T14:02:53.618Z,20.80
2023-04-04T14:07:58.370Z,20.00
2023-04-04T14:13:01.708Z,17.30
2023-04-04T14:18:06.648Z,14.80
2023-04-04T14:23:10.163Z,17.00
2023-04-04T14:28:13.435Z,18.40
2023-04-04T14:33:18.278Z,18.00
2023-04-04T14:38:21.634Z,17.80
2023-04-04T14:43:25.104Z,16.10
2023-04-04T14:48:29.967Z,14.90
2023-04-04T14:53:33.370Z,14.90
2023-04-04T14:58:36.795Z,15.90
2023-04-04T15:03:41.608Z,17.00
2023-04-04T15:08:44.994Z,18.30
2023-04-04T15:13:48.321Z,20.00
2023-04-04T15:18:52.989Z,18.20
2023-04-04T15:23:56.420Z,13.90
2023-04-04T15:28:59.747Z,11.40
2023-04-04T15:34:04.466Z,11.00
2023-04-04T15:39:07.746Z,13.00
2023-04-04T15:44:11.146Z,14.00
2023-04-04T15:49:15.964Z,14.40
2023-04-04T15:54:19.266Z,15.50
2023-04-04T15:59:22.637Z,16.00
2023-04-04T16:04:27.602Z,14.30
2023-04-04T16:09:31.374Z,15.10
2023-04-04T16:14:34.677Z,12.30
2023-04-04T16:19:39.406Z,11.30
2023-04-04T16:24:42.657Z,12.80
2023-04-04T16:29:46.123Z,12.00
2023-04-04T16:34:50.836Z,12.50
2023-04-04T16:39:54.168Z,12.80
2023-04-04T16:44:57.589Z,13.50
2023-04-04T16:50:02.354Z,13.40
2023-04-04T16:55:06.479Z,13.90
2023-04-04T17:00:11.100Z,13.60
2023-04-04T17:05:16.229Z,13.50
2023-04-04T17:10:20.090Z,12.80
2023-04-04T17:15:24.273Z,11.60
2023-04-04T17:20:30.999Z,9.70
2023-04-04T17:25:35.512Z,9.40
2023-04-04T17:30:39.058Z,7.50
2023-04-04T17:35:48.204Z,6.80
2023-04-04T17:40:52.877Z,6.40
2023-04-04T17:45:56.284Z,6.20
2023-04-04T17:51:01.364Z,5.70
2023-04-04T17:56:05.496Z,6.70
2023-04-04T18:01:08.842Z,5.30
2023-04-04T18:06:13.671Z,5.00
2023-04-04T18:11:17.027Z,6.10
2023-04-04T18:16:20.777Z,6.00
2023-04-04T18:21:26.676Z,5.60
2023-04-04T18:26:29.986Z,4.90
2023-04-04T18:31:33.398Z,6.00
2023-04-04T18:36:38.373Z,4.30
2023-04-04T18:41:41.762Z,5.80
2023-04-04T18:46:45.131Z,5.50
2023-04-04T18:51:50.433Z,5.20
2023-04-04T18:56:54.464Z,3.50
2023-04-04T19:01:58.147Z,6.10
2023-04-04T19:07:06.813Z,3.80
2023-04-04T19:12:10.220Z,3.40
2023-04-04T19:17:15.715Z,2.60
2023-04-04T19:22:20.654Z,2.50
2023-04-04T19:27:24.359Z,2.50
2023-04-04T19:32:30.134Z,3.50
2023-04-04T19:37:36.019Z,2.30
2023-04-04T19:42:42.292Z,2.10
2023-04-04T19:47:45.685Z,1.90
2023-04-04T19:52:50.515Z,1.70
2023-04-04T19:57:53.849Z,1.70
2023-04-04T20:03:08.085Z,1.60
2023-04-04T20:08:12.771Z,1.60
2023-04-04T20:13:16.201Z,1.40
2023-04-04T20:18:22.545Z,4.70
2023-04-04T20:23:28.830Z,1.30
2023-04-04T20:28:32.460Z,1.20
2023-04-04T20:33:37.834Z,1.20
2023-04-04T20:38:43.702Z,3.20
2023-04-04T20:43:52.810Z,1.10
2023-04-04T20:48:57.518Z,1.00
2023-04-04T20:54:03.788Z,0.90
2023-04-04T20:59:08.044Z,1.00
2023-04-04T21:04:25.214Z,1.00
2023-04-04T21:09:30.351Z,2.50
2023-04-04T21:14:37.752Z,1.20
2023-04-04T21:19:41.307Z,0.70
2023-04-04T21:24:47.065Z,0.70
2023-04-04T21:29:51.184Z,2.80
2023-04-04T21:34:54.694Z,0.90
2023-04-04T21:40:00.711Z,0.50
2023-04-04T21:45:04.227Z,0.40
2023-04-04T21:50:08.707Z,0.30
2023-04-04T21:55:13.778Z,0.30
2023-04-04T22:00:18.824Z,0.20
2023-04-04T22:05:29.177Z,0.20
2023-04-04T22:10:45.562Z,0.20
2023-04-04T22:15:49.783Z,0.20
2023-04-04T22:20:54.978Z,0.10
2023-04-04T22:26:02.182Z,0.10
2023-04-04T22:31:06.449Z,0.20
2023-04-04T22:36:10.631Z,0.20
2023-04-04T22:41:15.822Z,0.30
2023-04-04T22:46:20.099Z,0.20
2023-04-04T22:51:23.564Z,-0.10
2023-04-04T22:56:28.446Z,0.00
2023-04-04T23:01:31.838Z,-0.30
2023-04-04T23:06:38.751Z,1.30
2023-04-04T23:11:43.632Z,-0.50
2023-04-04T23:16:47.724Z,0.20
2023-04-04T23:21:52.669Z,1.20
2023-04-04T23:26:57.727Z,-0.60
2023-04-04T23:32:01.016Z,-0.50
2023-04-04T23:37:04.711Z,-0.60
2023-04-04T23:42:09.487Z,-0.50
2023-04-04T23:47:13.602Z,-0.60
2023-04-04T23:52:17.085Z,-0.60
2023-04-04T23:57:21.904Z,-0.60
